Time;durP1;ratioP1;P1;durP2;ratioP2;P2;SDS_P1;SDS_P2;PMS_P1;PMS_P2;Temp;Humidity;BMP_temperature;BMP_pressure;BME280_temperature;BME280_humidity;BME280_pressure;Samples;Min_cycle;Max_cycle;Signal;HPM_P1;HPM_P2
2022/06/12 00:00:33;;;;;;;;;;;18.20;99.90;;;;;;5165546;28;19913;-84
2022/06/12 00:03:05;;;;;;;;;;;18.10;99.90;;;;;;5167901;28;19917;-83
2022/06/12 00:05:36;;;;;;;;;;;18.10;99.90;;;;;;5167754;28;19910;-83
2022/06/12 00:08:07;;;;;;;;;;;18.20;99.90;;;;;;5167795;28;19933;-82
2022/06/12 00:10:39;;;;;;;;;;;18.10;99.90;;;;;;5168977;28;19917;-84
2022/06/12 00:13:11;;;;;;;;;;;18.00;99.90;;;;;;5168969;28;19909;-81
2022/06/12 00:15:42;;;;;;;;;;;18.00;99.90;;;;;;5167698;28;20357;-79
2022/06/12 00:18:13;;;;;;;;;;;18.00;99.90;;;;;;5167087;28;19960;-86
2022/06/12 00:20:44;;;;;;;;;;;18.20;99.90;;;;;;5167674;28;19913;-81
2022/06/12 00:23:16;;;;;;;;;;;18.20;99.90;;;;;;5168649;28;19913;-80
2022/06/12 00:25:47;;;;;;;;;;;18.20;99.90;;;;;;5167402;28;19912;-80
2022/06/12 00:28:20;;;;;;;;;;;18.20;99.90;;;;;;5168493;28;19906;-80
2022/06/12 00:30:51;;;;;;;;;;;18.30;99.90;;;;;;5167510;28;19910;-83
2022/06/12 00:33:32;;;;;;;;;;;18.20;99.90;;;;;;5167663;28;19959;-81
2022/06/12 00:36:05;;;;;;;;;;;18.10;99.90;;;;;;5163929;28;19999;-81
2022/06/12 00:38:39;;;;;;;;;;;18.00;99.90;;;;;;5162707;28;19921;-81
2022/06/12 00:41:12;;;;;;;;;;;18.20;99.90;;;;;;5176721;28;19922;-81
2022/06/12 00:43:46;;;;;;;;;;;18.30;99.90;;;;;;5155095;28;19921;-81
2022/06/12 00:46:37;;;;;;;;;;;18.20;99.90;;;;;;5168963;28;19953;-81
2022/06/12 00:49:14;;;;;;;;;;;18.30;99.90;;;;;;5168267;28;19997;-86
2022/06/12 00:51:47;;;;;;;;;;;18.20;99.90;;;;;;5158197;28;20270;-87
2022/06/12 00:54:18;;;;;;;;;;;18.10;99.90;;;;;;5168282;28;19906;-80
2022/06/12 00:56:50;;;;;;;;;;;18.00;99.90;;;;;;5168241;28;19905;-88
2022/06/12 00:59:32;;;;;;;;;;;18.10;99.90;;;;;;5183053;28;19913;-83
2022/06/12 01:02:04;;;;;;;;;;;18.00;99.90;;;;;;5167850;28;19921;-81
2022/06/12 01:07:28;;;;;;;;;;;18.10;99.90;;;;;;5167874;28;20354;-80
2022/06/12 01:10:01;;;;;;;;;;;18.10;99.90;;;;;;5167744;28;20333;-80
2022/06/12 01:12:34;;;;;;;;;;;17.90;99.90;;;;;;5165864;28;19916;-84
2022/06/12 01:15:07;;;;;;;;;;;17.90;99.90;;;;;;5167627;28;19914;-85
2022/06/12 01:17:39;;;;;;;;;;;17.80;99.90;;;;;;5166839;28;20398;-81
2022/06/12 01:20:12;;;;;;;;;;;17.80;99.90;;;;;;5167680;28;19905;-85
2022/06/12 01:22:43;;;;;;;;;;;17.80;99.90;;;;;;5167647;28;20012;-80
2022/06/12 01:25:40;;;;;;;;;;;17.80;99.90;;;;;;5167633;28;20856;-86
2022/06/12 01:28:15;;;;;;;;;;;17.70;99.90;;;;;;5160898;28;20328;-80
2022/06/12 01:30:56;;;;;;;;;;;17.70;99.90;;;;;;5167490;28;19909;-81
2022/06/12 01:33:30;;;;;;;;;;;17.80;99.90;;;;;;5166082;28;19941;-85
2022/06/12 01:36:03;;;;;;;;;;;17.80;99.90;;;;;;5167408;28;19906;-84
2022/06/12 01:38:42;;;;;;;;;;;17.80;99.90;;;;;;5166101;28;19993;-81
2022/06/12 01:41:15;;;;;;;;;;;17.70;99.90;;;;;;5162960;28;19956;-80
2022/06/12 01:44:05;;;;;;;;;;;17.70;99.90;;;;;;5167306;28;19922;-83
2022/06/12 01:46:43;;;;;;;;;;;17.80;99.90;;;;;;5167269;28;19980;-85
2022/06/12 01:49:32;;;;;;;;;;;17.90;99.90;;;;;;5167080;28;19917;-83
2022/06/12 01:52:20;;;;;;;;;;;17.90;99.90;;;;;;5159709;28;19933;-86
2022/06/12 01:54:57;;;;;;;;;;;17.80;99.90;;;;;;5165714;28;20000;-80
2022/06/12 01:57:40;;;;;;;;;;;17.90;99.90;;;;;;5166902;28;19944;-79
2022/06/12 02:00:15;;;;;;;;;;;17.90;99.90;;;;;;5166699;28;19941;-79
2022/06/12 02:03:15;;;;;;;;;;;17.80;99.90;;;;;;5165025;28;19921;-79
2022/06/12 02:06:08;;;;;;;;;;;17.90;99.90;;;;;;5140510;28;19909;-80
2022/06/12 02:08:43;;;;;;;;;;;18.00;99.90;;;;;;5162185;28;19901;-80
2022/06/12 02:14:23;;;;;;;;;;;17.90;99.90;;;;;;5166683;28;19984;-80
2022/06/12 02:16:57;;;;;;;;;;;17.90;99.90;;;;;;5165136;28;20388;-80
2022/06/12 02:19:31;;;;;;;;;;;18.00;99.90;;;;;;5165319;28;19917;-79
2022/06/12 02:22:31;;;;;;;;;;;17.90;99.90;;;;;;5165762;28;19918;-80
2022/06/12 02:25:28;;;;;;;;;;;18.00;99.90;;;;;;5155029;28;19906;-79
2022/06/12 03:59:29;;;;;;;;;;;19.20;99.90;;;;;;5278623;27;20469;-79
2022/06/12 04:02:03;;;;;;;37.15;20.27;;;19.40;99.90;;;;;;5278689;28;19908;-78
2022/06/12 04:04:36;;;;;;;43.05;18.10;;;19.40;99.90;;;;;;5281956;28;20027;-79
2022/06/12 04:07:11;;;;;;;46.00;18.73;;;19.30;99.90;;;;;;5281491;28;20032;-79
2022/06/12 04:09:46;;;;;;;38.58;18.13;;;19.30;99.90;;;;;;5277046;28;20387;-79
2022/06/12 04:12:30;;;;;;;33.83;16.65;;;19.30;99.90;;;;;;5275007;28;20034;-79
2022/06/12 04:15:26;;;;;;;37.47;17.60;;;19.30;99.90;;;;;;5278587;28;20359;-79
2022/06/12 04:17:58;;;;;;;39.45;19.20;;;19.40;99.90;;;;;;5266059;28;20032;-79
2022/06/12 04:20:48;;;;;;;32.35;17.95;;;19.30;99.90;;;;;;5252336;28;20052;-79
2022/06/12 04:23:25;;;;;;;40.13;17.65;;;19.30;99.90;;;;;;5267424;28;20031;-78
2022/06/12 04:26:01;;;;;;;34.40;17.02;;;19.30;99.90;;;;;;5261766;28;20017;-78
2022/06/12 04:28:38;;;;;;;36.22;18.80;;;19.30;99.90;;;;;;5254555;28;20040;-79
2022/06/12 04:31:19;;;;;;;42.65;18.92;;;19.40;99.90;;;;;;5255598;28;20031;-79
2022/06/12 04:34:14;;;;;;;42.53;18.80;;;19.30;99.90;;;;;;5253120;28;20035;-79
2022/06/12 04:36:50;;;;;;;38.55;18.13;;;19.40;99.90;;;;;;5261338;28;20024;-79
2022/06/12 04:39:25;;;;;;;39.50;17.63;;;19.30;99.90;;;;;;5255324;28;20032;-80
2022/06/12 04:41:57;;;;;;;33.97;18.13;;;19.30;99.90;;;;;;5263125;28;20020;-79
2022/06/12 04:44:28;;;;;;;34.80;17.70;;;19.30;99.90;;;;;;5263178;28;20039;-78
2022/06/12 04:47:00;;;;;;;34.70;16.92;;;19.30;99.90;;;;;;5261319;28;20036;-79
2022/06/12 04:49:34;;;;;;;30.17;17.13;;;19.40;99.90;;;;;;5255398;28;20079;-79
2022/06/12 04:52:08;;;;;;;37.08;17.75;;;19.30;99.90;;;;;;5254018;28;20099;-79
2022/06/12 04:54:41;;;;;;;40.38;17.05;;;19.30;99.90;;;;;;5253785;28;20094;-81
2022/06/12 04:57:14;;;;;;;37.55;16.73;;;19.30;99.90;;;;;;5257614;28;20032;-78
2022/06/12 04:59:47;;;;;;;36.08;16.58;;;19.20;99.90;;;;;;5253606;28;20124;-78
2022/06/12 05:02:18;;;;;;;33.85;17.20;;;19.30;99.90;;;;;;5240101;28;20027;-78
2022/06/12 05:04:49;;;;;;;35.60;17.77;;;19.30;99.90;;;;;;5245078;28;20021;-79
2022/06/12 05:07:20;;;;;;;24.80;15.13;;;19.30;99.90;;;;;;5247886;28;20024;-79
2022/06/12 05:09:50;;;;;;;28.50;15.63;;;19.30;99.90;;;;;;5244076;28;20401;-79
2022/06/12 05:12:21;;;;;;;23.60;14.63;;;19.30;99.90;;;;;;5242963;28;20035;-79
2022/06/12 05:14:52;;;;;;;27.58;14.18;;;19.30;99.90;;;;;;5234602;28;20067;-78
2022/06/12 05:17:23;;;;;;;30.63;14.68;;;19.30;99.90;;;;;;5245430;28;20029;-79
2022/06/12 05:19:54;;;;;;;30.95;14.27;;;19.30;99.90;;;;;;5241379;28;20495;-78
2022/06/12 05:22:25;;;;;;;30.92;15.02;;;19.20;99.90;;;;;;5237420;28;20047;-78
2022/06/12 05:24:56;;;;;;;27.60;15.30;;;19.30;99.90;;;;;;5246015;28;20024;-79
2022/06/12 05:27:27;;;;;;;33.90;14.38;;;19.20;99.90;;;;;;5252036;28;20078;-79
2022/06/12 05:29:58;;;;;;;30.35;14.55;;;19.20;99.90;;;;;;5253044;28;20081;-78
2022/06/12 05:32:28;;;;;;;32.88;14.77;;;19.10;99.90;;;;;;5244045;28;20041;-79
2022/06/12 05:34:59;;;;;;;27.83;14.45;;;19.10;99.90;;;;;;5251245;28;20025;-79
2022/06/12 05:37:30;;;;;;;30.17;14.52;;;19.20;99.90;;;;;;5244625;28;20091;-79
2022/06/12 05:40:01;;;;;;;31.25;14.68;;;19.10;99.90;;;;;;5239534;28;20028;-79
2022/06/12 05:42:31;;;;;;;27.73;13.88;;;19.20;99.90;;;;;;5247345;28;20025;-78
2022/06/12 05:45:04;;;;;;;31.92;14.38;;;19.20;99.90;;;;;;5249267;28;20021;-79
2022/06/12 05:47:42;;;;;;;24.75;12.82;;;19.20;99.90;;;;;;5252515;28;20032;-79
2022/06/12 05:50:14;;;;;;;21.63;12.85;;;19.20;99.90;;;;;;5251248;28;20062;-79
2022/06/12 05:52:45;;;;;;;27.63;13.68;;;19.20;99.90;;;;;;5246455;28;20044;-79
2022/06/12 05:55:17;;;;;;;22.65;13.32;;;19.30;99.90;;;;;;5231482;28;20383;-78
2022/06/12 05:57:49;;;;;;;29.75;13.52;;;19.30;99.90;;;;;;5237152;28;20095;-78
2022/06/12 06:00:25;;;;;;;26.20;14.25;;;19.30;99.90;;;;;;5240212;28;20127;-78
2022/06/12 06:02:56;;;;;;;26.08;13.40;;;19.30;99.90;;;;;;5242231;28;20032;-77
2022/06/12 06:05:29;;;;;;;31.67;15.60;;;19.30;99.90;;;;;;5231217;28;20017;-78
2022/06/12 06:08:00;;;;;;;23.88;12.80;;;19.30;99.90;;;;;;5238245;28;20487;-78
2022/06/12 06:10:31;;;;;;;34.78;14.32;;;19.20;99.90;;;;;;5238101;28;20031;-79
2022/06/12 06:13:08;;;;;;;30.17;13.68;;;19.20;99.90;;;;;;5244548;28;20032;-78
2022/06/12 06:15:39;;;;;;;22.48;12.52;;;19.20;99.90;;;;;;5233981;28;20028;-78
2022/06/12 06:18:10;;;;;;;21.13;11.18;;;19.20;99.90;;;;;;5247847;28;20043;-79
2022/06/12 06:20:41;;;;;;;22.38;12.27;;;19.10;99.90;;;;;;5229955;28;20033;-79
2022/06/12 06:23:13;;;;;;;24.67;12.77;;;19.10;99.90;;;;;;5238361;28;20025;-80
2022/06/12 06:25:44;;;;;;;17.77;12.02;;;19.10;99.90;;;;;;5235711;28;20155;-80
2022/06/12 06:28:16;;;;;;;26.75;12.63;;;19.10;99.90;;;;;;5239366;28;20447;-80
2022/06/12 06:30:47;;;;;;;26.15;13.38;;;19.10;99.90;;;;;;5239745;28;20025;-78
2022/06/12 06:33:18;;;;;;;26.80;12.02;;;19.00;99.90;;;;;;5238153;28;20033;-79
2022/06/12 06:35:52;;;;;;;23.90;13.23;;;19.00;99.90;;;;;;5244264;28;20095;-79
2022/06/12 06:38:23;;;;;;;26.55;14.55;;;19.00;99.90;;;;;;5229633;28;20484;-78
2022/06/12 06:40:54;;;;;;;20.40;12.60;;;19.00;99.90;;;;;;5244155;28;20025;-77
2022/06/12 06:43:25;;;;;;;19.98;13.02;;;19.00;99.90;;;;;;5233570;28;20039;-77
2022/06/12 06:46:13;;;;;;;22.73;13.48;;;19.00;99.90;;;;;;5234339;28;20067;-77
2022/06/12 06:48:44;;;;;;;22.67;13.63;;;19.00;99.90;;;;;;5235305;28;20036;-77
2022/06/12 06:51:16;;;;;;;23.25;13.75;;;19.00;99.90;;;;;;5233384;28;20870;-77
2022/06/12 06:53:47;;;;;;;24.15;12.95;;;19.00;99.90;;;;;;5236527;28;20941;-76
2022/06/12 06:56:18;;;;;;;28.98;14.18;;;19.00;99.90;;;;;;5243974;28;20024;-76
2022/06/12 06:58:49;;;;;;;22.30;13.20;;;19.00;99.90;;;;;;5237910;28;20110;-78
2022/06/12 07:01:20;;;;;;;21.27;13.02;;;18.90;99.90;;;;;;5236940;28;20345;-78
2022/06/12 07:03:53;;;;;;;17.85;11.07;;;18.90;99.90;;;;;;5240894;28;20040;-77
2022/06/12 07:06:23;;;;;;;17.35;11.70;;;18.80;99.90;;;;;;5237567;28;20074;-79
2022/06/12 07:08:55;;;;;;;15.48;10.50;;;18.80;99.90;;;;;;5241357;28;20029;-77
2022/06/12 07:11:27;;;;;;;15.50;10.45;;;18.80;99.90;;;;;;5237436;28;20472;-77
2022/06/12 07:13:58;;;;;;;16.55;11.75;;;18.90;99.90;;;;;;5235168;28;20052;-78
2022/06/12 07:16:32;;;;;;;17.38;10.68;;;19.00;99.90;;;;;;5248301;28;20047;-78
2022/06/12 07:19:03;;;;;;;20.33;11.13;;;18.90;99.90;;;;;;5240493;28;20108;-78
2022/06/12 07:21:35;;;;;;;19.30;12.38;;;18.90;99.90;;;;;;5233101;28;20118;-78
2022/06/12 07:24:06;;;;;;;20.58;12.20;;;18.90;99.90;;;;;;5241738;28;20031;-79
2022/06/12 07:26:41;;;;;;;17.13;13.02;;;19.00;99.90;;;;;;5232315;28;20370;-80
2022/06/12 07:29:14;;;;;;;24.77;12.57;;;18.90;99.90;;;;;;5240471;28;20044;-78
2022/06/12 07:31:46;;;;;;;21.08;12.45;;;18.90;99.90;;;;;;5238765;28;20506;-77
2022/06/12 07:34:18;;;;;;;16.40;11.55;;;18.90;99.90;;;;;;5239297;28;20033;-78
2022/06/12 07:36:50;;;;;;;20.75;13.07;;;18.90;99.90;;;;;;5230705;28;20424;-75
2022/06/12 07:39:26;;;;;;;17.83;12.70;;;18.90;99.90;;;;;;5227657;28;20060;-75
2022/06/12 07:41:58;;;;;;;22.83;15.32;;;19.00;99.90;;;;;;5243080;28;20036;-76
2022/06/12 07:44:32;;;;;;;18.80;15.38;;;19.00;99.90;;;;;;5232185;28;20021;-82
2022/06/12 07:47:03;;;;;;;23.48;16.20;;;19.00;99.90;;;;;;5239719;28;20021;-83
2022/06/12 07:49:35;;;;;;;23.23;16.52;;;19.00;99.90;;;;;;5235527;28;20100;-75
2022/06/12 07:52:08;;;;;;;27.20;14.60;;;19.10;99.90;;;;;;5251565;28;20020;-77
2022/06/12 07:54:40;;;;;;;21.25;13.43;;;19.20;99.90;;;;;;5232750;28;20031;-77
2022/06/12 07:57:11;;;;;;;17.90;13.02;;;19.30;99.90;;;;;;5235986;28;20108;-79
2022/06/12 07:59:42;;;;;;;25.73;14.75;;;19.40;99.90;;;;;;5232050;28;20049;-81
2022/06/12 08:02:14;;;;;;;20.85;14.13;;;19.40;99.90;;;;;;5232405;28;20020;-78
2022/06/12 08:04:45;;;;;;;19.95;13.82;;;19.40;99.90;;;;;;5233962;28;20037;-77
2022/06/12 08:07:16;;;;;;;23.55;12.98;;;19.30;99.90;;;;;;5236072;28;20045;-85
2022/06/12 08:09:47;;;;;;;19.45;13.50;;;19.30;99.90;;;;;;5237539;28;20374;-79
2022/06/12 08:12:18;;;;;;;17.50;13.68;;;19.30;99.90;;;;;;5242338;28;20541;-79
2022/06/12 08:14:49;;;;;;;16.25;12.80;;;19.20;99.90;;;;;;5246912;28;20017;-77
2022/06/12 08:17:20;;;;;;;20.23;12.65;;;19.20;99.90;;;;;;5242163;28;21845;-80
2022/06/12 08:22:40;;;;;;;17.48;12.98;;;19.30;99.90;;;;;;5237558;28;20060;-77
2022/06/12 08:25:11;;;;;;;18.67;12.20;;;19.40;99.90;;;;;;5244116;28;20102;-81
2022/06/12 08:27:42;;;;;;;18.00;13.57;;;19.30;99.90;;;;;;5235529;28;20052;-78
2022/06/12 08:30:14;;;;;;;19.45;13.75;;;19.30;99.90;;;;;;5232059;28;20021;-79
2022/06/12 08:32:48;;;;;;;19.88;12.63;;;19.30;99.90;;;;;;5232605;28;20033;-80
2022/06/12 08:35:25;;;;;;;17.02;12.43;;;19.30;99.90;;;;;;5241494;28;20029;-78
2022/06/12 08:37:58;;;;;;;19.23;12.30;;;19.30;99.90;;;;;;5238664;28;20759;-76
2022/06/12 08:40:44;;;;;;;16.67;12.77;;;19.30;99.90;;;;;;5237466;28;20028;-78
2022/06/12 08:43:29;;;;;;;21.38;12.98;;;19.20;99.90;;;;;;5256118;28;20094;-79
2022/06/12 08:46:09;;;;;;;14.70;11.02;;;19.20;99.90;;;;;;5236853;28;20060;-80
2022/06/12 08:49:02;;;;;;;18.52;12.85;;;19.30;99.90;;;;;;5245370;28;20037;-82
2022/06/12 08:52:04;;;;;;;17.67;12.00;;;19.30;99.90;;;;;;5246350;28;20056;-80
2022/06/12 08:55:14;;;;;;;22.40;12.02;;;19.30;99.90;;;;;;5242595;28;20028;-78
2022/06/12 08:58:03;;;;;;;20.88;13.63;;;19.30;99.90;;;;;;5240615;28;20395;-81
2022/06/12 09:00:37;;;;;;;26.42;15.38;;;19.40;99.90;;;;;;5251091;28;21307;-81
2022/06/12 09:03:14;;;;;;;25.05;14.15;;;19.40;99.90;;;;;;5240220;28;20044;-82
2022/06/12 09:06:17;;;;;;;18.45;13.10;;;19.40;99.90;;;;;;5244999;28;20028;-85
2022/06/12 09:09:04;;;;;;;20.27;14.35;;;19.50;99.90;;;;;;5224175;28;20451;-82
2022/06/12 09:11:52;;;;;;;23.30;14.25;;;19.50;99.90;;;;;;5244787;28;20033;-82
2022/06/12 09:14:46;;;;;;;18.73;12.73;;;19.50;99.90;;;;;;5243105;28;20029;-83
2022/06/12 09:17:34;;;;;;;21.88;12.82;;;19.50;99.90;;;;;;5250295;28;20044;-83
2022/06/12 09:20:05;;;;;;;20.30;12.90;;;19.40;99.90;;;;;;5242328;28;20079;-81
2022/06/12 09:22:51;;;;;;;21.00;13.85;;;19.50;99.90;;;;;;5243996;28;20024;-79
2022/06/12 09:25:42;;;;;;;21.15;13.73;;;19.50;99.90;;;;;;5251815;28;20518;-81
2022/06/12 09:28:40;;;;;;;16.00;12.38;;;19.50;99.90;;;;;;5236498;28;20064;-82
2022/06/12 09:31:22;;;;;;;23.65;13.75;;;19.50;99.90;;;;;;5246514;28;20020;-78
2022/06/12 09:34:25;;;;;;;18.88;13.38;;;19.50;99.90;;;;;;5247488;28;20459;-79
2022/06/12 09:38:18;;;;;;;19.20;13.00;;;19.50;99.90;;;;;;5243634;28;20057;-76
2022/06/12 09:40:02;;;;;;;18.40;13.23;;;19.50;99.90;;;;;;5251725;28;20484;-77
2022/06/12 09:42:56;;;;;;;18.05;12.93;;;19.60;99.90;;;;;;5241324;28;20056;-77
2022/06/12 09:45:44;;;;;;;21.90;13.60;;;19.70;99.90;;;;;;5235004;28;20057;-81
2022/06/12 09:48:28;;;;;;;23.83;13.60;;;19.90;99.90;;;;;;5241349;28;20033;-76
2022/06/12 09:51:14;;;;;;;19.35;13.73;;;19.90;99.90;;;;;;5240881;28;20048;-80
2022/06/12 09:54:05;;;;;;;20.33;13.38;;;19.80;99.90;;;;;;5232309;28;20420;-79
2022/06/12 09:57:08;;;;;;;20.08;14.48;;;19.80;99.90;;;;;;5233486;28;20038;-83
2022/06/12 09:59:52;;;;;;;23.83;14.27;;;19.80;99.90;;;;;;5236725;28;20043;-79
2022/06/12 10:03:03;;;;;;;20.15;14.00;;;19.80;99.90;;;;;;5248031;28;20058;-78
2022/06/12 10:05:43;;;;;;;23.35;14.43;;;19.70;99.90;;;;;;5240825;28;20047;-77
2022/06/12 10:08:16;;;;;;;;;;;19.70;99.90;;;;;;5248379;28;20032;-80
2022/06/12 10:10:56;;;;;;;21.05;13.85;;;19.70;99.90;;;;;;5236379;28;19908;-81
2022/06/12 10:13:35;;;;;;;26.38;15.75;;;19.80;99.90;;;;;;5237237;28;20464;-78
2022/06/12 10:16:13;;;;;;;28.60;14.60;;;19.80;99.90;;;;;;5233302;28;20435;-82
2022/06/12 10:19:11;;;;;;;23.60;14.48;;;19.90;99.90;;;;;;5229135;28;20059;-78
2022/06/12 10:21:47;;;;;;;23.90;13.63;;;19.90;99.90;;;;;;5231559;28;20040;-79
2022/06/12 10:24:18;;;;;;;23.38;13.88;;;19.90;99.90;;;;;;5238790;28;20028;-84
2022/06/12 10:27:19;;;;;;;17.77;12.90;;;19.90;99.90;;;;;;5249143;28;20078;-79
2022/06/12 10:30:03;;;;;;;22.02;13.20;;;20.00;99.90;;;;;;5251945;28;20074;-80
2022/06/12 10:33:21;;;;;;;18.98;12.60;;;20.10;99.90;;;;;;5245803;28;20029;-81
2022/06/12 10:35:58;;;;;;;19.00;12.45;;;20.30;99.90;;;;;;5234121;28;20040;-78
2022/06/12 10:38:32;;;;;;;23.70;12.82;;;20.30;99.90;;;;;;5237972;28;20028;-77
2022/06/12 10:41:19;;;;;;;18.17;12.20;;;20.10;99.90;;;;;;5248443;28;20032;-82
2022/06/12 10:43:52;;;;;;;23.73;12.50;;;20.00;99.90;;;;;;5237232;28;20033;-78
2022/06/12 10:46:31;;;;;;;22.35;13.40;;;20.00;99.90;;;;;;5242948;28;20071;-81
2022/06/12 10:49:17;;;;;;;19.65;13.73;;;20.00;99.90;;;;;;5239431;28;20040;-75
2022/06/12 10:51:48;;;;;;;19.88;13.07;;;19.90;99.90;;;;;;5241225;28;20025;-74
2022/06/12 10:54:22;;;;;;;20.65;12.55;;;19.90;99.90;;;;;;5244195;28;20028;-74
2022/06/12 10:57:14;;;;;;;35.00;13.27;;;20.00;99.90;;;;;;5243868;28;20028;-74
2022/06/12 10:59:58;;;;;;;23.77;10.98;;;20.00;99.90;;;;;;5235083;28;20045;-76
2022/06/12 11:02:42;;;;;;;18.85;10.73;;;20.00;99.90;;;;;;5233871;28;20109;-74
2022/06/12 11:05:31;;;;;;;17.85;11.23;;;20.00;99.90;;;;;;5236622;28;20025;-75
2022/06/12 11:08:40;;;;;;;24.45;13.55;;;19.90;99.90;;;;;;5245523;28;20042;-76
2022/06/12 11:11:30;;;;;;;20.40;14.10;;;19.80;99.90;;;;;;5239927;28;20099;-74
2022/06/12 11:14:10;;;;;;;;;;;19.80;99.90;;;;;;5241220;28;20037;-78
2022/06/12 11:17:03;;;;;;;22.08;14.65;;;19.80;99.90;;;;;;5233129;28;19905;-75
2022/06/12 11:19:53;;;;;;;22.02;15.10;;;19.80;99.90;;;;;;5238024;28;20065;-82
2022/06/12 11:22:26;;;;;;;25.50;15.90;;;19.90;99.90;;;;;;5238484;28;20049;-74
2022/06/12 11:25:32;;;;;;;24.40;15.05;;;19.90;99.90;;;;;;5240559;28;20037;-75
2022/06/12 11:28:35;;;;;;;27.15;15.55;;;19.80;99.90;;;;;;5238168;28;20043;-77
2022/06/12 11:31:31;;;;;;;25.98;14.50;;;19.90;99.90;;;;;;5233903;28;20079;-75
2022/06/12 11:34:23;;;;;;;18.42;12.60;;;19.70;99.90;;;;;;5241758;28;20402;-74
2022/06/12 11:37:14;;;;;;;16.27;10.35;;;19.70;99.90;;;;;;5246244;28;20013;-74
2022/06/12 11:39:44;;;;;;;12.73;9.20;;;19.70;99.90;;;;;;5234434;28;20086;-75
2022/06/12 11:42:18;;;;;;;20.63;12.32;;;19.70;99.90;;;;;;5235475;28;20021;-75
2022/06/12 11:45:10;;;;;;;24.88;15.35;;;19.80;99.90;;;;;;5237147;28;20376;-75
2022/06/12 11:47:52;;;;;;;29.85;17.70;;;19.90;99.90;;;;;;5251034;28;20031;-74
2022/06/12 11:50:37;;;;;;;35.22;18.77;;;19.90;99.90;;;;;;5241252;28;20040;-75
2022/06/12 11:53:25;;;;;;;29.90;18.52;;;19.90;99.90;;;;;;5256862;28;20410;-75
2022/06/12 11:56:27;;;;;;;33.47;19.85;;;19.90;99.90;;;;;;5242273;28;20078;-79
2022/06/12 11:59:04;;;;;;;31.55;18.60;;;19.90;99.90;;;;;;5238236;28;20084;-74
2022/06/12 12:02:07;;;;;;;36.33;19.23;;;19.90;99.90;;;;;;5230032;28;20502;-81
2022/06/12 12:05:11;;;;;;;28.27;17.90;;;19.90;99.90;;;;;;5240657;28;20033;-80
2022/06/12 12:08:06;;;;;;;30.83;18.15;;;20.00;99.90;;;;;;5238463;28;20518;-76
2022/06/12 12:11:05;;;;;;;37.65;18.63;;;19.90;99.90;;;;;;5238292;28;20032;-77
2022/06/12 12:13:47;;;;;;;32.45;18.73;;;20.00;99.90;;;;;;5245406;28;20081;-77
2022/06/12 12:16:40;;;;;;;29.17;17.55;;;20.00;99.90;;;;;;5243324;28;20399;-78
2022/06/12 12:19:26;;;;;;;40.97;18.13;;;20.10;99.90;;;;;;5243644;28;20062;-78
2022/06/12 12:22:14;;;;;;;29.45;16.38;;;20.10;99.90;;;;;;5239636;28;20029;-76
2022/06/12 12:24:52;;;;;;;26.75;14.43;;;20.00;99.90;;;;;;5242048;28;20535;-74
2022/06/12 12:27:45;;;;;;;26.98;15.02;;;20.10;99.90;;;;;;5245706;28;20072;-78
2022/06/12 12:30:34;;;;;;;23.45;14.90;;;20.10;99.90;;;;;;5239184;28;20112;-75
2022/06/12 12:33:11;;;;;;;34.20;15.27;;;20.20;99.90;;;;;;5247399;28;20091;-77
2022/06/12 12:41:38;;;;;;;28.95;14.95;;;20.60;99.90;;;;;;5243452;28;20119;-76
2022/06/12 12:44:10;;;;;;;20.17;13.50;;;20.60;99.90;;;;;;5245699;28;20033;-76
2022/06/12 12:46:49;;;;;;;25.40;13.48;;;20.60;99.90;;;;;;5247351;28;20032;-74
2022/06/12 12:49:35;;;;;;;23.60;13.50;;;20.60;99.90;;;;;;5246029;28;21554;-76
2022/06/12 12:52:20;;;;;;;20.48;13.38;;;20.60;99.90;;;;;;5238432;28;20078;-75
2022/06/12 12:54:57;;;;;;;16.90;10.90;;;20.70;99.90;;;;;;5246841;28;20029;-75
2022/06/12 12:57:40;;;;;;;17.83;10.90;;;20.80;99.90;;;;;;5242308;28;20481;-73
2022/06/12 13:00:17;;;;;;;18.85;10.20;;;21.10;99.90;;;;;;5238592;28;20029;-73
2022/06/12 13:02:59;;;;;;;14.68;9.50;;;21.00;99.90;;;;;;5233409;28;20124;-73
2022/06/12 13:05:47;;;;;;;18.60;9.88;;;21.10;99.90;;;;;;5242108;28;20029;-76
2022/06/12 13:08:39;;;;;;;22.83;9.40;;;21.00;99.90;;;;;;5235149;28;20416;-74
2022/06/12 13:11:29;;;;;;;14.60;9.23;;;21.10;99.90;;;;;;5238875;28;21677;-76
2022/06/12 13:14:24;;;;;;;20.10;9.07;;;21.00;99.90;;;;;;5239085;28;20108;-73
2022/06/12 13:17:04;;;;;;;14.38;7.93;;;21.00;99.90;;;;;;5262390;28;20060;-77
2022/06/12 13:19:53;;;;;;;;;;;20.80;99.90;;;;;;5238927;28;20021;-74
2022/06/12 13:22:37;;;;;;;13.33;7.90;;;20.80;99.90;;;;;;5239439;28;19911;-73
2022/06/12 13:25:13;;;;;;;14.95;8.48;;;20.80;99.90;;;;;;5248093;28;20777;-74
2022/06/12 13:27:59;;;;;;;15.07;7.78;;;20.80;99.90;;;;;;5244855;28;20545;-76
2022/06/12 13:30:40;;;;;;;15.05;7.47;;;20.80;99.90;;;;;;5243161;28;20874;-74
2022/06/12 13:33:21;;;;;;;14.88;7.28;;;20.80;99.90;;;;;;5237815;28;20025;-75
2022/06/12 13:35:59;;;;;;;12.00;6.53;;;20.90;99.90;;;;;;5246401;28;20021;-73
2022/06/12 13:38:53;;;;;;;18.38;7.70;;;20.90;99.90;;;;;;5246536;28;20479;-77
2022/06/12 13:41:54;;;;;;;16.75;8.10;;;21.00;99.90;;;;;;5241513;28;20024;-73
2022/06/12 13:44:55;;;;;;;20.33;7.43;;;21.10;99.90;;;;;;5233344;28;20040;-73
2022/06/12 13:47:36;;;;;;;13.80;7.15;;;21.30;99.90;;;;;;5238084;28;20028;-75
2022/06/12 13:50:07;;;;;;;15.38;6.70;;;21.30;99.90;;;;;;5238378;28;20033;-78
2022/06/12 13:53:02;;;;;;;14.43;7.10;;;21.20;99.90;;;;;;5244069;28;20096;-81
2022/06/12 13:55:53;;;;;;;15.80;8.30;;;21.20;99.90;;;;;;5243698;28;20468;-72
2022/06/12 13:58:34;;;;;;;15.43;8.15;;;21.10;99.90;;;;;;5239673;28;20496;-72
2022/06/12 14:01:32;;;;;;;29.15;8.80;;;21.10;99.90;;;;;;5238088;28;20044;-77
2022/06/12 14:04:05;;;;;;;23.13;9.07;;;21.10;99.90;;;;;;5241818;28;20027;-74
2022/06/12 14:06:39;;;;;;;21.90;9.73;;;21.10;99.90;;;;;;5240428;28;20095;-72
2022/06/12 14:09:32;;;;;;;17.92;8.95;;;21.10;99.90;;;;;;5237161;28;20033;-72
2022/06/12 14:12:03;;;;;;;18.80;8.35;;;21.10;99.90;;;;;;5233606;28;20025;-73
2022/06/12 14:14:42;;;;;;;17.45;9.18;;;21.10;99.90;;;;;;5247555;28;20023;-75
2022/06/12 14:17:27;;;;;;;17.38;9.05;;;21.10;99.90;;;;;;5243485;28;20032;-73
2022/06/12 14:20:20;;;;;;;17.35;8.27;;;21.30;99.90;;;;;;5238732;28;20159;-72
2022/06/12 14:22:55;;;;;;;17.88;8.60;;;21.20;99.90;;;;;;5243651;28;20071;-71
2022/06/12 14:25:31;;;;;;;19.58;9.07;;;21.20;99.90;;;;;;5237060;28;20018;-73
2022/06/12 14:28:12;;;;;;;15.23;8.93;;;21.30;99.90;;;;;;5238297;28;20036;-72
2022/06/12 14:30:57;;;;;;;17.08;9.13;;;21.40;99.90;;;;;;5239426;28;20099;-73
2022/06/12 14:33:36;;;;;;;14.43;8.48;;;21.30;99.90;;;;;;5241017;28;20024;-76
2022/06/12 14:36:35;;;;;;;17.08;8.48;;;21.60;99.90;;;;;;5238612;28;20112;-78
2022/06/12 14:39:12;;;;;;;18.38;8.68;;;21.70;99.90;;;;;;5228230;28;20032;-75
2022/06/12 14:42:06;;;;;;;16.55;8.15;;;21.60;99.90;;;;;;5246522;28;20465;-79
2022/06/12 14:44:38;;;;;;;14.68;8.00;;;21.70;99.90;;;;;;5225407;28;20036;-74
2022/06/12 14:47:17;;;;;;;14.55;7.65;;;21.70;99.90;;;;;;5245852;28;20016;-77
2022/06/12 14:49:49;;;;;;;16.48;7.38;;;21.80;99.90;;;;;;5239852;28;20039;-73
2022/06/12 14:52:23;;;;;;;16.98;7.63;;;21.70;99.90;;;;;;5246127;28;20074;-79
2022/06/12 14:54:56;;;;;;;13.18;6.68;;;21.70;99.90;;;;;;5243308;28;20467;-76
2022/06/12 14:57:28;;;;;;;13.68;7.05;;;21.80;99.90;;;;;;5234871;28;20565;-83
2022/06/12 15:00:00;;;;;;;20.25;7.30;;;21.70;99.90;;;;;;5258781;28;20094;-78
2022/06/12 15:02:32;;;;;;;13.38;6.28;;;21.80;99.90;;;;;;5244181;28;20033;-78
2022/06/12 15:05:16;;;;;;;16.75;7.45;;;21.80;99.90;;;;;;5242757;28;20096;-76
2022/06/12 15:07:46;;;;;;;14.77;6.47;;;21.80;99.90;;;;;;5240923;28;20033;-74
2022/06/12 15:10:18;;;;;;;13.95;6.00;;;21.70;99.90;;;;;;5239301;28;20035;-73
2022/06/12 15:12:49;;;;;;;14.80;6.40;;;21.50;99.90;;;;;;5238500;28;20043;-73
2022/06/12 15:15:22;;;;;;;16.23;7.75;;;21.40;99.90;;;;;;5236370;28;20360;-75
2022/06/12 15:17:53;;;;;;;15.95;6.50;;;21.30;99.90;;;;;;5236926;28;20036;-74
2022/06/12 15:20:24;;;;;;;14.00;6.90;;;21.30;99.90;;;;;;5237364;28;20083;-77
2022/06/12 15:22:54;;;;;;;14.55;6.03;;;21.30;99.90;;;;;;5242228;28;20024;-77
2022/06/12 15:31:10;;;;;;;22.40;6.57;;;21.30;99.90;;;;;;5245479;28;20400;-76
2022/06/12 15:33:41;;;;;;;15.18;6.30;;;21.10;99.90;;;;;;5237273;28;20033;-77
2022/06/12 15:36:13;;;;;;;17.00;6.30;;;21.10;99.90;;;;;;5246370;28;20024;-75
2022/06/12 15:38:44;;;;;;;17.05;6.70;;;21.10;99.90;;;;;;5239146;28;20029;-75
2022/06/12 15:41:18;;;;;;;19.00;6.60;;;21.00;99.90;;;;;;5233553;28;20511;-74